sensor_id;sensor_type;location;lat;lon;timestamp;pressure;altitude;pressure_sealevel;temperature;humidity
85649;BME280;76075;52.476;13.124;2024-02-23T00:00:28;97943.28;;;19.79;51.40
85649;BME280;76075;52.476;13.124;2024-02-23T00:01:30;97951.19;;;19.78;51.26
85649;BME280;76075;52.476;13.124;2024-02-23T00:02:31;97954.75;;;19.79;51.36
85649;BME280;76075;52.476;13.124;2024-02-23T00:03:33;97952.63;;;19.77;51.25
85649;BME280;76075;52.476;13.124;2024-02-23T00:04:36;97953.34;;;19.78;51.37
85649;BME280;76075;52.476;13.124;2024-02-23T00:05:37;97953.34;;;19.78;51.38
85649;BME280;76075;52.476;13.124;2024-02-23T00:06:39;97956.22;;;19.78;51.23
85649;BME280;76075;52.476;13.124;2024-02-23T00:07:40;97957.63;;;19.77;51.31
85649;BME280;76075;52.476;13.124;2024-02-23T00:08:42;97957.63;;;19.77;51.26
85649;BME280;76075;52.476;13.124;2024-02-23T00:09:43;97967.69;;;19.76;51.46
85649;BME280;76075;52.476;13.124;2024-02-23T00:10:44;97966.97;;;19.77;51.25
85649;BME280;76075;52.476;13.124;2024-02-23T00:11:46;97956.91;;;19.76;51.42
85649;BME280;76075;52.476;13.124;2024-02-23T00:12:48;97962.66;;;19.76;51.39
85649;BME280;76075;52.476;13.124;2024-02-23T00:13:50;97964.81;;;19.76;51.22
85649;BME280;76075;52.476;13.124;2024-02-23T00:14:51;97959.06;;;19.76;51.31
85649;BME280;76075;52.476;13.124;2024-02-23T00:15:52;97967.69;;;19.76;51.26
85649;BME280;76075;52.476;13.124;2024-02-23T00:16:54;97955.50;;;19.75;51.37
85649;BME280;76075;52.476;13.124;2024-02-23T00:17:55;97959.06;;;19.74;51.30
85649;BME280;76075;52.476;13.124;2024-02-23T00:18:56;97959.78;;;19.74;51.36
85649;BME280;76075;52.476;13.124;2024-02-23T00:19:59;97951.91;;;19.73;51.40
85649;BME280;76075;52.476;13.124;2024-02-23T00:21:00;97945.41;;;19.72;51.30
85649;BME280;76075;52.476;13.124;2024-02-23T00:22:01;97943.28;;;19.71;51.33
85649;BME280;76075;52.476;13.124;2024-02-23T00:23:05;97939.69;;;19.72;51.33
85649;BME280;76075;52.476;13.124;2024-02-23T00:24:07;97941.81;;;19.70;51.23
85649;BME280;76075;52.476;13.124;2024-02-23T00:25:08;97934.66;;;19.71;51.32
85649;BME280;76075;52.476;13.124;2024-02-23T00:26:10;97950.44;;;19.70;51.24
85649;BME280;76075;52.476;13.124;2024-02-23T00:27:11;97951.88;;;19.71;51.39
85649;BME280;76075;52.476;13.124;2024-02-23T00:28:13;97954.75;;;19.71;51.36
85649;BME280;76075;52.476;13.124;2024-02-23T00:29:14;97954.75;;;19.71;51.50
85649;BME280;76075;52.476;13.124;2024-02-23T00:30:16;97948.31;;;19.70;51.38
85649;BME280;76075;52.476;13.124;2024-02-23T00:31:17;97959.78;;;19.70;51.32
85649;BME280;76075;52.476;13.124;2024-02-23T00:32:18;97943.28;;;19.69;51.34
85649;BME280;76075;52.476;13.124;2024-02-23T00:33:20;97938.94;;;19.70;51.46
85649;BME280;76075;52.476;13.124;2024-02-23T00:34:21;97945.41;;;19.68;51.34
85649;BME280;76075;52.476;13.124;2024-02-23T00:35:23;97935.38;;;19.69;51.51
85649;BME280;76075;52.476;13.124;2024-02-23T00:36:25;97941.81;;;19.70;51.35
85649;BME280;76075;52.476;13.124;2024-02-23T00:37:26;97939.66;;;19.68;51.38
85649;BME280;76075;52.476;13.124;2024-02-23T00:38:27;97938.91;;;19.67;51.35
85649;BME280;76075;52.476;13.124;2024-02-23T00:39:29;97950.41;;;19.67;51.31
85649;BME280;76075;52.476;13.124;2024-02-23T00:40:33;97960.50;;;19.69;51.34
85649;BME280;76075;52.476;13.124;2024-02-23T00:41:35;97956.13;;;19.67;51.17
85649;BME280;76075;52.476;13.124;2024-02-23T00:42:36;97947.53;;;19.67;51.19
85649;BME280;76075;52.476;13.124;2024-02-23T00:43:38;97961.88;;;19.67;51.25
85649;BME280;76075;52.476;13.124;2024-02-23T00:44:40;97953.28;;;19.67;51.24
85649;BME280;76075;52.476;13.124;2024-02-23T00:45:41;97950.41;;;19.67;51.24
85649;BME280;76075;52.476;13.124;2024-02-23T00:46:43;97945.41;;;19.68;51.21
85649;BME280;76075;52.476;13.124;2024-02-23T00:47:44;97953.28;;;19.67;51.39
85649;BME280;76075;52.476;13.124;2024-02-23T00:48:48;97963.31;;;19.66;51.18
85649;BME280;76075;52.476;13.124;2024-02-23T00:49:49;97961.88;;;19.67;51.30
85649;BME280;76075;52.476;13.124;2024-02-23T00:50:50;97954.72;;;19.66;51.16
85649;BME280;76075;52.476;13.124;2024-02-23T00:51:52;97961.88;;;19.67;51.31
85649;BME280;76075;52.476;13.124;2024-02-23T00:52:53;97971.94;;;19.66;51.16
85649;BME280;76075;52.476;13.124;2024-02-23T00:53:55;97984.88;;;19.65;51.22
85649;BME280;76075;52.476;13.124;2024-02-23T00:54:56;97991.31;;;19.66;51.22
85649;BME280;76075;52.476;13.124;2024-02-23T00:55:58;97984.84;;;19.67;51.24
85649;BME280;76075;52.476;13.124;2024-02-23T00:56:59;97993.47;;;19.67;51.29
85649;BME280;76075;52.476;13.124;2024-02-23T00:58:00;97989.16;;;19.66;51.25
85649;BME280;76075;52.476;13.124;2024-02-23T00:59:02;97993.47;;;19.65;51.29
85649;BME280;76075;52.476;13.124;2024-02-23T01:00:03;97994.19;;;19.66;51.12
85649;BME280;76075;52.476;13.124;2024-02-23T01:01:08;97989.88;;;19.65;51.32
85649;BME280;76075;52.476;13.124;2024-02-23T01:02:09;98012.13;;;19.66;51.09
85649;BME280;76075;52.476;13.124;2024-02-23T01:03:11;98003.50;;;19.64;51.34
85649;BME280;76075;52.476;13.124;2024-02-23T01:04:12;97994.88;;;19.64;51.28
85649;BME280;76075;52.476;13.124;2024-02-23T01:05:13;97994.19;;;19.64;51.14
85649;BME280;76075;52.476;13.124;2024-02-23T01:06:15;97996.34;;;19.63;51.28
85649;BME280;76075;52.476;13.124;2024-02-23T01:07:18;98002.06;;;19.63;51.25
85649;BME280;76075;52.476;13.124;2024-02-23T01:08:19;98001.34;;;19.63;51.11
85649;BME280;76075;52.476;13.124;2024-02-23T01:09:21;98007.06;;;19.63;51.15
85649;BME280;76075;52.476;13.124;2024-02-23T01:10:22;98012.09;;;19.62;51.13
85649;BME280;76075;52.476;13.124;2024-02-23T01:11:23;98003.50;;;19.62;51.34
85649;BME280;76075;52.476;13.124;2024-02-23T01:12:25;98023.59;;;19.62;51.24
85649;BME280;76075;52.476;13.124;2024-02-23T01:13:26;98026.44;;;19.62;51.30
85649;BME280;76075;52.476;13.124;2024-02-23T01:14:28;98023.59;;;19.62;51.15
85649;BME280;76075;52.476;13.124;2024-02-23T01:15:29;98024.28;;;19.63;51.11
85649;BME280;76075;52.476;13.124;2024-02-23T01:16:30;98036.50;;;19.63;51.03
85649;BME280;76075;52.476;13.124;2024-02-23T01:17:33;98035.06;;;19.62;51.22
85649;BME280;76075;52.476;13.124;2024-02-23T01:18:35;98043.66;;;19.62;51.08
85649;BME280;76075;52.476;13.124;2024-02-23T01:19:36;98045.13;;;19.61;51.15
85649;BME280;76075;52.476;13.124;2024-02-23T01:20:37;98040.81;;;19.62;51.06
85649;BME280;76075;52.476;13.124;2024-02-23T01:21:39;98042.25;;;19.61;51.14
85649;BME280;76075;52.476;13.124;2024-02-23T01:22:40;98050.84;;;19.61;51.05
85649;BME280;76075;52.476;13.124;2024-02-23T01:23:42;98050.16;;;19.61;51.15
85649;BME280;76075;52.476;13.124;2024-02-23T01:24:43;98049.41;;;19.60;51.09
85649;BME280;76075;52.476;13.124;2024-02-23T01:25:44;98050.84;;;19.61;51.10
85649;BME280;76075;52.476;13.124;2024-02-23T01:26:46;98049.41;;;19.60;51.09
85649;BME280;76075;52.476;13.124;2024-02-23T01:27:47;98060.16;;;19.60;51.08
85649;BME280;76075;52.476;13.124;2024-02-23T01:28:49;98053.00;;;19.59;51.12
85649;BME280;76075;52.476;13.124;2024-02-23T01:29:50;98061.59;;;19.59;51.09
85649;BME280;76075;52.476;13.124;2024-02-23T01:30:52;98052.25;;;19.58;51.06
85649;BME280;76075;52.476;13.124;2024-02-23T01:31:53;98065.19;;;19.59;51.02
85649;BME280;76075;52.476;13.124;2024-02-23T01:32:55;98067.34;;;19.57;51.18
85649;BME280;76075;52.476;13.124;2024-02-23T01:33:57;98073.06;;;19.57;51.05
85649;BME280;76075;52.476;13.124;2024-02-23T01:34:58;98069.50;;;19.56;51.12
85649;BME280;76075;52.476;13.124;2024-02-23T01:36:00;98073.78;;;19.57;51.12
85649;BME280;76075;52.476;13.124;2024-02-23T01:37:01;98066.63;;;19.56;51.08
85649;BME280;76075;52.476;13.124;2024-02-23T01:38:03;98072.38;;;19.56;51.19
85649;BME280;76075;52.476;13.124;2024-02-23T01:39:04;98083.09;;;19.56;51.13
85649;BME280;76075;52.476;13.124;2024-02-23T01:40:05;98082.38;;;19.55;51.12
85649;BME280;76075;52.476;13.124;2024-02-23T01:41:07;98076.66;;;19.55;51.05
85649;BME280;76075;52.476;13.124;2024-02-23T01:42:08;98069.47;;;19.54;51.12
85649;BME280;76075;52.476;13.124;2024-02-23T01:43:10;98078.09;;;19.54;51.06
85649;BME280;76075;52.476;13.124;2024-02-23T01:44:11;98093.88;;;19.55;51.01
85649;BME280;76075;52.476;13.124;2024-02-23T01:45:13;98097.44;;;19.54;51.01
85649;BME280;76075;52.476;13.124;2024-02-23T01:46:14;98102.47;;;19.55;50.91
85649;BME280;76075;52.476;13.124;2024-02-23T01:47:19;98112.53;;;19.54;50.86
85649;BME280;76075;52.476;13.124;2024-02-23T01:48:21;98109.66;;;19.54;50.83
85649;BME280;76075;52.476;13.124;2024-02-23T01:49:22;98115.41;;;19.54;50.83
85649;BME280;76075;52.476;13.124;2024-02-23T01:50:30;98111.06;;;19.53;50.73
85649;BME280;76075;52.476;13.124;2024-02-23T01:51:32;98111.09;;;19.55;50.80
85649;BME280;76075;52.476;13.124;2024-02-23T01:52:34;98119.69;;;19.55;50.79
85649;BME280;76075;52.476;13.124;2024-02-23T01:53:35;98122.56;;;19.55;50.72
85649;BME280;76075;52.476;13.124;2024-02-23T01:54:37;98126.88;;;19.54;50.83
85649;BME280;76075;52.476;13.124;2024-02-23T01:55:41;98126.88;;;19.54;50.74
85649;BME280;76075;52.476;13.124;2024-02-23T01:56:43;98131.16;;;19.53;50.78
85649;BME280;76075;52.476;13.124;2024-02-23T01:57:45;98149.84;;;19.54;50.63
85649;BME280;76075;52.476;13.124;2024-02-23T01:58:50;98146.97;;;19.54;50.54
85649;BME280;76075;52.476;13.124;2024-02-23T01:59:52;98161.31;;;19.54;50.54
85649;BME280;76075;52.476;13.124;2024-02-23T02:00:54;98172.06;;;19.54;50.46
85649;BME280;76075;52.476;13.124;2024-02-23T02:01:55;98179.25;;;19.55;50.62
85649;BME280;76075;52.476;13.124;2024-02-23T02:02:57;98179.25;;;19.53;50.60
85649;BME280;76075;52.476;13.124;2024-02-23T02:03:58;98187.13;;;19.52;50.59
85649;BME280;76075;52.476;13.124;2024-02-23T02:04:59;98187.13;;;19.52;50.40
85649;BME280;76075;52.476;13.124;2024-02-23T02:06:01;98202.19;;;19.53;50.47
85649;BME280;76075;52.476;13.124;2024-02-23T02:07:02;98200.03;;;19.53;50.40
85649;BME280;76075;52.476;13.124;2024-02-23T02:08:04;98216.53;;;19.53;50.18
85649;BME280;76075;52.476;13.124;2024-02-23T02:09:05;98221.59;;;19.54;50.10
85649;BME280;76075;52.476;13.124;2024-02-23T02:10:08;98225.88;;;19.53;50.19
85649;BME280;76075;52.476;13.124;2024-02-23T02:11:09;98223.00;;;19.53;49.96
85649;BME280;76075;52.476;13.124;2024-02-23T02:12:11;98233.06;;;19.52;49.89
85649;BME280;76075;52.476;13.124;2024-02-23T02:13:12;98228.03;;;19.53;49.87
85649;BME280;76075;52.476;13.124;2024-02-23T02:14:14;98240.94;;;19.54;49.76
85649;BME280;76075;52.476;13.124;2024-02-23T02:15:16;98245.97;;;19.53;49.88
85649;BME280;76075;52.476;13.124;2024-02-23T02:16:17;98243.09;;;19.55;49.87
85649;BME280;76075;52.476;13.124;2024-02-23T02:17:18;98247.41;;;19.54;50.00
85649;BME280;76075;52.476;13.124;2024-02-23T02:18:20;98260.34;;;19.55;49.57
85649;BME280;76075;52.476;13.124;2024-02-23T02:19:21;98260.34;;;19.55;49.63
85649;BME280;76075;52.476;13.124;2024-02-23T02:20:26;98270.41;;;19.56;49.66
85649;BME280;76075;52.476;13.124;2024-02-23T02:21:29;98290.50;;;19.56;49.50
85649;BME280;76075;52.476;13.124;2024-02-23T02:22:31;98283.31;;;19.57;49.69
85649;BME280;76075;52.476;13.124;2024-02-23T02:23:33;98286.19;;;19.57;49.72
85649;BME280;76075;52.476;13.124;2024-02-23T02:24:35;98297.66;;;19.57;49.77
85649;BME280;76075;52.476;13.124;2024-02-23T02:25:36;98309.16;;;19.57;49.75
85649;BME280;76075;52.476;13.124;2024-02-23T02:26:37;98309.84;;;19.58;49.78
85649;BME280;76075;52.476;13.124;2024-02-23T02:27:39;98300.53;;;19.57;49.71
85649;BME280;76075;52.476;13.124;2024-02-23T02:28:40;98298.34;;;19.56;49.87
85649;BME280;76075;52.476;13.124;2024-02-23T02:29:41;98322.06;;;19.58;49.83
85649;BME280;76075;52.476;13.124;2024-02-23T02:30:43;98313.44;;;19.56;49.83
85649;BME280;76075;52.476;13.124;2024-02-23T02:31:44;98311.28;;;19.57;49.75
85649;BME280;76075;52.476;13.124;2024-02-23T02:32:45;98315.56;;;19.56;49.94
85649;BME280;76075;52.476;13.124;2024-02-23T02:33:47;98324.19;;;19.56;49.73
85649;BME280;76075;52.476;13.124;2024-02-23T02:34:49;98330.66;;;19.56;49.80
85649;BME280;76075;52.476;13.124;2024-02-23T02:35:50;98332.78;;;19.56;49.68
85649;BME280;76075;52.476;13.124;2024-02-23T02:36:51;98334.94;;;19.55;49.65
85649;BME280;76075;52.476;13.124;2024-02-23T02:37:53;98327.78;;;19.54;49.56
85649;BME280;76075;52.476;13.124;2024-02-23T02:38:54;98337.81;;;19.53;49.48
85649;BME280;76075;52.476;13.124;2024-02-23T02:39:55;98338.53;;;19.54;49.44
85649;BME280;76075;52.476;13.124;2024-02-23T02:40:57;98350.75;;;19.54;49.50
85649;BME280;76075;52.476;13.124;2024-02-23T02:41:58;98340.66;;;19.53;49.81
85649;BME280;76075;52.476;13.124;2024-02-23T02:43:00;98341.38;;;19.54;49.49
85649;BME280;76075;52.476;13.124;2024-02-23T02:44:01;98339.25;;;19.54;49.64
85649;BME280;76075;52.476;13.124;2024-02-23T02:45:02;98350.75;;;19.54;49.50
85649;BME280;76075;52.476;13.124;2024-02-23T02:46:04;98345.72;;;19.55;49.31
85649;BME280;76075;52.476;13.124;2024-02-23T02:47:06;98333.53;;;19.54;49.40
85649;BME280;76075;52.476;13.124;2024-02-23T02:48:07;98336.38;;;19.54;49.35
85649;BME280;76075;52.476;13.124;2024-02-23T02:49:09;98343.53;;;19.53;49.34
85649;BME280;76075;52.476;13.124;2024-02-23T02:50:10;98339.25;;;19.54;49.26
85649;BME280;76075;52.476;13.124;2024-02-23T02:51:12;98347.84;;;19.52;49.30
85649;BME280;76075;52.476;13.124;2024-02-23T02:52:13;98341.38;;;19.54;49.42
85649;BME280;76075;52.476;13.124;2024-02-23T02:53:15;98347.84;;;19.52;49.48
85649;BME280;76075;52.476;13.124;2024-02-23T02:54:16;98353.59;;;19.52;49.36
85649;BME280;76075;52.476;13.124;2024-02-23T02:55:18;98352.16;;;19.53;49.41
85649;BME280;76075;52.476;13.124;2024-02-23T02:56:20;98352.13;;;19.51;49.34
85649;BME280;76075;52.476;13.124;2024-02-23T02:57:21;98358.63;;;19.52;49.38
85649;BME280;76075;52.476;13.124;2024-02-23T02:58:22;98347.13;;;19.52;49.26
85649;BME280;76075;52.476;13.124;2024-02-23T02:59:24;98356.47;;;19.52;49.16
85649;BME280;76075;52.476;13.124;2024-02-23T03:00:29;98362.19;;;19.52;49.22
85649;BME280;76075;52.476;13.124;2024-02-23T03:01:32;98366.47;;;19.51;49.33
85649;BME280;76075;52.476;13.124;2024-02-23T03:02:33;98363.59;;;19.51;49.17
85649;BME280;76075;52.476;13.124;2024-02-23T03:03:35;98363.59;;;19.51;49.17
85649;BME280;76075;52.476;13.124;2024-02-23T03:04:36;98357.88;;;19.51;49.22
85649;BME280;76075;52.476;13.124;2024-02-23T03:05:37;98366.47;;;19.51;49.23
85649;BME280;76075;52.476;13.124;2024-02-23T03:06:39;98373.66;;;19.50;49.27
85649;BME280;76075;52.476;13.124;2024-02-23T03:07:40;98365.06;;;19.52;49.05
85649;BME280;76075;52.476;13.124;2024-02-23T03:08:42;98381.56;;;19.52;49.25
85649;BME280;76075;52.476;13.124;2024-02-23T03:09:44;98385.13;;;19.50;49.29
85649;BME280;76075;52.476;13.124;2024-02-23T03:10:45;98389.44;;;19.51;49.33
85649;BME280;76075;52.476;13.124;2024-02-23T03:11:46;98396.63;;;19.50;49.33
85649;BME280;76075;52.476;13.124;2024-02-23T03:12:49;98399.50;;;19.50;49.18
85649;BME280;76075;52.476;13.124;2024-02-23T03:13:50;98385.13;;;19.50;49.18
85649;BME280;76075;52.476;13.124;2024-02-23T03:14:51;98395.16;;;19.49;49.26
85649;BME280;76075;52.476;13.124;2024-02-23T03:15:53;98395.16;;;19.49;49.41
85649;BME280;76075;52.476;13.124;2024-02-23T03:16:54;98393.72;;;19.48;49.12
85649;BME280;76075;52.476;13.124;2024-02-23T03:17:55;98396.59;;;19.48;49.18
85649;BME280;76075;52.476;13.124;2024-02-23T03:18:57;98393.00;;;19.48;49.31
85649;BME280;76075;52.476;13.124;2024-02-23T03:19:58;98400.91;;;19.49;49.16
85649;BME280;76075;52.476;13.124;2024-02-23T03:21:00;98385.09;;;19.48;49.24
85649;BME280;76075;52.476;13.124;2024-02-23T03:22:01;98398.03;;;19.49;49.21
85649;BME280;76075;52.476;13.124;2024-02-23T03:23:03;98404.47;;;19.48;49.31
85649;BME280;76075;52.476;13.124;2024-02-23T03:24:05;98392.28;;;19.47;49.22
85649;BME280;76075;52.476;13.124;2024-02-23T03:25:06;98403.78;;;19.47;49.29
85649;BME280;76075;52.476;13.124;2024-02-23T03:26:11;98406.63;;;19.47;49.30
85649;BME280;76075;52.476;13.124;2024-02-23T03:27:12;98397.28;;;19.46;49.23
85649;BME280;76075;52.476;13.124;2024-02-23T03:28:14;98403.78;;;19.47;49.24
85649;BME280;76075;52.476;13.124;2024-02-23T03:29:15;98403.78;;;19.47;49.07
85649;BME280;76075;52.476;13.124;2024-02-23T03:30:17;98403.03;;;19.46;49.18
85649;BME280;76075;52.476;13.124;2024-02-23T03:31:18;98403.78;;;19.47;49.18
85649;BME280;76075;52.476;13.124;2024-02-23T03:32:19;98418.13;;;19.47;49.08
85649;BME280;76075;52.476;13.124;2024-02-23T03:33:22;98420.25;;;19.46;49.07
85649;BME280;76075;52.476;13.124;2024-02-23T03:34:23;98426.72;;;19.47;48.98
85649;BME280;76075;52.476;13.124;2024-02-23T03:35:25;98421.69;;;19.48;49.01
85649;BME280;76075;52.476;13.124;2024-02-23T03:36:26;98410.91;;;19.46;49.06
85649;BME280;76075;52.476;13.124;2024-02-23T03:37:27;98431.00;;;19.46;49.13
85649;BME280;76075;52.476;13.124;2024-02-23T03:38:29;98420.25;;;19.46;49.15
85649;BME280;76075;52.476;13.124;2024-02-23T03:39:33;98420.25;;;19.46;49.16
85649;BME280;76075;52.476;13.124;2024-02-23T03:40:35;98432.47;;;19.47;49.12
85649;BME280;76075;52.476;13.124;2024-02-23T03:41:37;98426.72;;;19.47;49.21
85649;BME280;76075;52.476;13.124;2024-02-23T03:42:38;98433.19;;;19.48;49.25
85649;BME280;76075;52.476;13.124;2024-02-23T03:43:39;98441.06;;;19.47;49.28
85649;BME280;76075;52.476;13.124;2024-02-23T03:44:41;98433.19;;;19.48;49.26
85649;BME280;76075;52.476;13.124;2024-02-23T03:45:43;98440.34;;;19.49;49.29
85649;BME280;76075;52.476;13.124;2024-02-23T03:46:45;98430.34;;;19.50;49.23
85649;BME280;76075;52.476;13.124;2024-02-23T03:47:46;98433.94;;;19.50;49.36
85649;BME280;76075;52.476;13.124;2024-02-23T03:48:48;98448.28;;;19.50;49.28
85649;BME280;76075;52.476;13.124;2024-02-23T03:49:49;98439.69;;;19.52;49.29
85649;BME280;76075;52.476;13.124;2024-02-23T03:50:50;98451.16;;;19.52;49.46
85649;BME280;76075;52.476;13.124;2024-02-23T03:51:52;98452.59;;;19.53;49.55
85649;BME280;76075;52.476;13.124;2024-02-23T03:52:53;98466.25;;;19.55;49.51
85649;BME280;76075;52.476;13.124;2024-02-23T03:53:55;98468.44;;;19.56;49.55
85649;BME280;76075;52.476;13.124;2024-02-23T03:54:56;98466.97;;;19.55;49.52
85649;BME280;76075;52.476;13.124;2024-02-23T03:55:57;98477.06;;;19.56;49.56
85649;BME280;76075;52.476;13.124;2024-02-23T03:56:59;98465.56;;;19.56;49.59
85649;BME280;76075;52.476;13.124;2024-02-23T03:58:00;98468.44;;;19.56;49.67
85649;BME280;76075;52.476;13.124;2024-02-23T03:59:01;98474.91;;;19.57;49.61
85649;BME280;76075;52.476;13.124;2024-02-23T04:00:03;98472.75;;;19.57;49.72
85649;BME280;76075;52.476;13.124;2024-02-23T04:01:04;98488.53;;;19.58;49.63
85649;BME280;76075;52.476;13.124;2024-02-23T04:02:06;98476.34;;;19.58;49.62
85649;BME280;76075;52.476;13.124;2024-02-23T04:03:07;98480.66;;;19.57;49.62
85649;BME280;76075;52.476;13.124;2024-02-23T04:04:10;98477.06;;;19.58;49.82
85649;BME280;76075;52.476;13.124;2024-02-23T04:05:11;98489.97;;;19.57;49.79
85649;BME280;76075;52.476;13.124;2024-02-23T04:06:12;98495.72;;;19.57;49.79
85649;BME280;76075;52.476;13.124;2024-02-23T04:07:14;98489.25;;;19.57;49.87
85649;BME280;76075;52.476;13.124;2024-02-23T04:08:16;98480.66;;;19.57;49.79
85649;BME280;76075;52.476;13.124;2024-02-23T04:09:17;98494.28;;;19.56;49.79
85649;BME280;76075;52.476;13.124;2024-02-23T04:10:18;98497.16;;;19.56;49.79
85649;BME280;76075;52.476;13.124;2024-02-23T04:11:21;98497.16;;;19.56;49.84
85649;BME280;76075;52.476;13.124;2024-02-23T04:12:22;98510.06;;;19.57;49.94
85649;BME280;76075;52.476;13.124;2024-02-23T04:13:23;98508.63;;;19.56;49.89
85649;BME280;76075;52.476;13.124;2024-02-23T04:14:25;98516.53;;;19.58;49.97
85649;BME280;76075;52.476;13.124;2024-02-23T04:15:27;98519.38;;;19.58;49.93
85649;BME280;76075;52.476;13.124;2024-02-23T04:16:28;98520.09;;;19.58;49.82
85649;BME280;76075;52.476;13.124;2024-02-23T04:17:29;98518.69;;;19.59;49.92
85649;BME280;76075;52.476;13.124;2024-02-23T04:18:31;98531.63;;;19.60;49.89
85649;BME280;76075;52.476;13.124;2024-02-23T04:19:33;98531.63;;;19.60;49.92
85649;BME280;76075;52.476;13.124;2024-02-23T04:20:34;98535.94;;;19.61;49.81
85649;BME280;76075;52.476;13.124;2024-02-23T04:21:36;98534.53;;;19.62;49.94
85649;BME280;76075;52.476;13.124;2024-02-23T04:22:37;98546.00;;;19.62;49.99
85649;BME280;76075;52.476;13.124;2024-02-23T04:23:39;98537.38;;;19.62;49.89
85649;BME280;76075;52.476;13.124;2024-02-23T04:24:41;98541.72;;;19.63;49.98
85649;BME280;76075;52.476;13.124;2024-02-23T04:25:42;98540.25;;;19.62;49.85
85649;BME280;76075;52.476;13.124;2024-02-23T04:26:43;98539.53;;;19.62;49.88
85649;BME280;76075;52.476;13.124;2024-02-23T04:27:45;98557.47;;;19.62;49.89
85649;BME280;76075;52.476;13.124;2024-02-23T04:28:46;98546.00;;;19.62;50.04
85649;BME280;76075;52.476;13.124;2024-02-23T04:29:48;98546.00;;;19.62;49.93
85649;BME280;76075;52.476;13.124;2024-02-23T04:30:49;98563.22;;;19.62;50.02
85649;BME280;76075;52.476;13.124;2024-02-23T04:31:50;98556.78;;;19.62;49.93
85649;BME280;76075;52.476;13.124;2024-02-23T04:32:52;98563.94;;;19.63;50.07
85649;BME280;76075;52.476;13.124;2024-02-23T04:33:53;98568.25;;;19.62;49.99
85649;BME280;76075;52.476;13.124;2024-02-23T04:34:55;98576.16;;;19.61;49.92
85649;BME280;76075;52.476;13.124;2024-02-23T04:35:56;98578.28;;;19.61;49.95
85649;BME280;76075;52.476;13.124;2024-02-23T04:36:58;98579.72;;;19.62;50.05
85649;BME280;76075;52.476;13.124;2024-02-23T04:37:59;98578.28;;;19.61;50.13
85649;BME280;76075;52.476;13.124;2024-02-23T04:39:01;98582.56;;;19.60;50.07
85649;BME280;76075;52.476;13.124;2024-02-23T04:40:03;98586.16;;;19.60;50.16
85649;BME280;76075;52.476;13.124;2024-02-23T04:41:05;98581.84;;;19.59;50.05
85649;BME280;76075;52.476;13.124;2024-02-23T04:42:07;98590.50;;;19.61;49.98
85649;BME280;76075;52.476;13.124;2024-02-23T04:43:09;98577.56;;;19.60;50.04
85649;BME280;76075;52.476;13.124;2024-02-23T04:44:11;98589.78;;;19.61;50.04
85649;BME280;76075;52.476;13.124;2024-02-23T04:45:12;98596.25;;;19.61;50.07
85649;BME280;76075;52.476;13.124;2024-02-23T04:46:14;98584.75;;;19.61;50.18
85649;BME280;76075;52.476;13.124;2024-02-23T04:47:15;98591.22;;;19.62;50.10
85649;BME280;76075;52.476;13.124;2024-02-23T04:48:16;98603.41;;;19.62;49.98
85649;BME280;76075;52.476;13.124;2024-02-23T04:49:18;98606.28;;;19.62;49.98
85649;BME280;76075;52.476;13.124;2024-02-23T04:50:19;98615.63;;;19.63;49.99
85649;BME280;76075;52.476;13.124;2024-02-23T04:51:21;98616.38;;;19.63;50.01
85649;BME280;76075;52.476;13.124;2024-02-23T04:52:24;98612.75;;;19.63;50.06
85649;BME280;76075;52.476;13.124;2024-02-23T04:53:25;98617.09;;;19.64;49.88
85649;BME280;76075;52.476;13.124;2024-02-23T04:54:27;98622.13;;;19.65;49.93
85649;BME280;76075;52.476;13.124;2024-02-23T04:55:28;98625.00;;;19.65;49.86
85649;BME280;76075;52.476;13.124;2024-02-23T04:56:29;98634.34;;;19.66;50.01
85649;BME280;76075;52.476;13.124;2024-02-23T04:57:31;98635.06;;;19.66;49.95
85649;BME280;76075;52.476;13.124;2024-02-23T04:58:33;98640.78;;;19.66;49.90
85649;BME280;76075;52.476;13.124;2024-02-23T04:59:34;98632.91;;;19.67;49.92
85649;BME280;76075;52.476;13.124;2024-02-23T05:00:36;98649.41;;;19.66;49.93
85649;BME280;76075;52.476;13.124;2024-02-23T05:01:37;98663.75;;;19.66;49.98
85649;BME280;76075;52.476;13.124;2024-02-23T05:02:38;98666.63;;;19.66;49.84
85649;BME280;76075;52.476;13.124;2024-02-23T05:03:40;98668.06;;;19.67;49.97
85649;BME280;76075;52.476;13.124;2024-02-23T05:04:41;98666.63;;;19.66;49.94
85649;BME280;76075;52.476;13.124;2024-02-23T05:05:43;98667.34;;;19.67;50.03
85649;BME280;76075;52.476;13.124;2024-02-23T05:06:44;98667.34;;;19.67;49.97
85649;BME280;76075;52.476;13.124;2024-02-23T05:07:45;98662.34;;;19.67;49.98
85649;BME280;76075;52.476;13.124;2024-02-23T05:08:47;98659.47;;;19.65;50.10
85649;BME280;76075;52.476;13.124;2024-02-23T05:09:48;98671.66;;;19.66;49.90
85649;BME280;76075;52.476;13.124;2024-02-23T05:10:50;98674.53;;;19.66;49.98
85649;BME280;76075;52.476;13.124;2024-02-23T05:11:52;98669.50;;;19.66;50.03
85649;BME280;76075;52.476;13.124;2024-02-23T05:12:53;98678.13;;;19.66;50.00
85649;BME280;76075;52.476;13.124;2024-02-23T05:13:55;98673.81;;;19.65;50.06
85649;BME280;76075;52.476;13.124;2024-02-23T05:14:56;98688.88;;;19.66;49.92
85649;BME280;76075;52.476;13.124;2024-02-23T05:15:57;98687.41;;;19.65;50.09
85649;BME280;76075;52.476;13.124;2024-02-23T05:16:59;98694.59;;;19.64;49.89
85649;BME280;76075;52.476;13.124;2024-02-23T05:18:00;98699.66;;;19.65;49.90
85649;BME280;76075;52.476;13.124;2024-02-23T05:19:02;98698.91;;;19.65;49.91
85649;BME280;76075;52.476;13.124;2024-02-23T05:20:04;98705.38;;;19.65;49.95
85649;BME280;76075;52.476;13.124;2024-02-23T05:21:09;98699.66;;;19.65;49.88
85649;BME280;76075;52.476;13.124;2024-02-23T05:22:10;98714.00;;;19.65;49.85